Wadowice II — C6XW7 — position and weather

sailwx.info

Track history (hours):
 
Tides and Currents Weather Stations Pressure Air Temp Water Temp Dewpoint Dewpoint Depression Visibility Wind Speed Wind Dir Waves Ship Positions

Wadowice II

Last reported at 2017-Oct-16 07:17 UTC. Time now 2017-Oct-17 22:34 UTC.
Position N 53°34' E 014°35'.

Length 188 m; draft 8.9 m.

Type: Cargo ship. MMSI: 311024300.

Date/timePositionNaut miles runAvg speedWind from/ knotsBaromVisibWave heightAir tempDewpointWater temp
2017-Oct-16 07:17N 53°34' E 014°35'0 1.3
2017-Oct-16 07:00N 53°34' E 014°36'3 4.9
2017-Oct-16 06:22N 53°37' E 014°35'23 7.6
2017-Oct-16 03:21N 53°57' E 014°16'410.5
2017-Oct-16 02:55N 54°01' E 014°16'2 1.2
2017-Oct-16 01:03N 54°03' E 014°16'0 0.0
2017-Oct-16 00:54N 54°03' E 014°16'0 0.0
2017-Oct-15 20:57N 54°03' E 014°16'2 0.4
2017-Oct-15 15:47N 54°05' E 014°14'5 9.6
2017-Oct-15 15:19N 54°09' E 014°13'411.2
2017-Oct-15 14:57N 54°13' E 014°11'1111.1
2017-Oct-15 14:00N 54°20' E 013°57'2611.5
2017-Oct-15 11:43N 54°43' E 013°35'1011.0
2017-Oct-15 10:47N 54°46' E 013°19'511.6
2017-Oct-15 10:23N 54°46' E 013°11'411.5
2017-Oct-15 10:00N 54°46' E 013°03'611.7
2017-Oct-15 09:30N 54°47' E 012°53'611.5
2017-Oct-15 09:00N 54°45' E 012°43'612.0
2017-Oct-15 08:30N 54°41' E 012°35'812.1
2017-Oct-15 07:49N 54°37' E 012°23'511.6
2017-Oct-15 07:22N 54°33' E 012°17'412.2
2017-Oct-15 07:00N 54°29' E 012°15'511.0
2017-Oct-15 06:30N 54°25' E 012°08'612.1
2017-Oct-15 06:00N 54°25' E 011°58'611.7
2017-Oct-15 05:31N 54°25' E 011°48'611.7
2017-Oct-15 05:00N 54°27' E 011°38'612.1
2017-Oct-15 04:30N 54°30' E 011°29'612.4
2017-Oct-15 04:00N 54°32' E 011°19'612.2
2017-Oct-15 03:30N 54°35' E 011°10'612.1
2017-Oct-15 03:00N 54°38' E 011°01'611.6
2017-Oct-15 02:30N 54°42' E 010°53'611.6
2017-Oct-15 02:00N 54°47' E 010°52'611.7
2017-Oct-15 01:30N 54°53' E 010°53'611.8
2017-Oct-15 01:00N 54°58' E 010°59'611.5
2017-Oct-15 00:30N 55°04' E 011°02'612.4
2017-Oct-15 00:00N 55°10' E 011°03'611.1
2017-Oct-14 23:30N 55°15' E 011°05'612.2
2017-Oct-14 23:00N 55°21' E 011°02'6510.4
2017-Oct-14 16:44N 56°24' E 011°30'611.5
2017-Oct-14 16:11N 56°30' E 011°36'1011.5
2017-Oct-14 15:19N 56°38' E 011°45'512.0
2017-Oct-14 14:53N 56°43' E 011°50'512.0
2017-Oct-14 14:29N 56°48' E 011°51'612.8
2017-Oct-14 14:00N 56°54' E 011°47'1112.7
2017-Oct-14 13:10N 57°03' E 011°40'312.6
2017-Oct-14 12:58N 57°06' E 011°39'612.5
2017-Oct-14 12:30N 57°11' E 011°35'612.4
2017-Oct-14 12:00N 57°17' E 011°32'612.3
2017-Oct-14 11:30N 57°23' E 011°28'612.0
2017-Oct-14 11:00N 57°28' E 011°23'612.1
2017-Oct-14 10:29N 57°33' E 011°14'612.2
2017-Oct-14 09:59N 57°37' E 011°06'612.8
2017-Oct-14 09:30N 57°41' E 010°57'612.7
2017-Oct-14 09:00N 57°45' E 010°48'713.2
2017-Oct-14 08:30N 57°48' E 010°37'612.2
2017-Oct-14 08:00N 57°47' E 010°26'712.5
2017-Oct-14 07:28N 57°47' E 010°13'29311.4
2017-Oct-13 05:49N 53°52' E 004°60'611.5
2017-Oct-13 05:19N 53°47' E 004°56'411.4
2017-Oct-13 05:00N 53°43' E 004°54'611.2
2017-Oct-13 04:29N 53°38' E 004°51'611.1
2017-Oct-13 03:59N 53°32' E 004°48'611.1
2017-Oct-13 03:29N 53°27' E 004°45'611.0
2017-Oct-13 02:58N 53°22' E 004°41'1310.9
2017-Oct-13 01:44N 53°10' E 004°31'311.0
2017-Oct-13 01:30N 53°08' E 004°29'611.1
2017-Oct-13 01:00N 53°03' E 004°25'611.2
2017-Oct-13 00:30N 52°58' E 004°21'611.4
2017-Oct-13 00:00N 52°53' E 004°16'611.5
2017-Oct-12 23:30N 52°48' E 004°11'611.9
2017-Oct-12 23:00N 52°44' E 004°04'612.0
2017-Oct-12 22:31N 52°39' E 003°57'612.1
2017-Oct-12 22:00N 52°35' E 003°50'612.3
2017-Oct-12 21:30N 52°31' E 003°43'712.5
2017-Oct-12 20:57N 52°26' E 003°35'612.6
2017-Oct-12 20:30N 52°22' E 003°28'812.8
2017-Oct-12 19:51N 52°16' E 003°19'5312.8
2017-Oct-12 15:45N 51°36' E 002°23'312.0
2017-Oct-12 15:30N 51°34' E 002°20'611.7
2017-Oct-12 15:00N 51°30' E 002°14'611.1
2017-Oct-12 14:31N 51°25' E 002°08'610.9
2017-Oct-12 14:00N 51°20' E 002°08'510.4
2017-Oct-12 13:30N 51°15' E 002°06'5 9.9
2017-Oct-12 13:00N 51°12' E 001°60'5 9.8
2017-Oct-12 12:30N 51°10' E 001°53'5 9.6
2017-Oct-12 12:00N 51°07' E 001°47'5 9.5
2017-Oct-12 11:30N 51°03' E 001°42'5 9.2
2017-Oct-12 11:01N 50°60' E 001°37'5 9.5
2017-Oct-12 10:30N 50°57' E 001°31'5 9.7
2017-Oct-12 10:00N 50°52' E 001°27'510.3
2017-Oct-12 09:30N 50°48' E 001°25'2610.4
2017-Oct-12 07:01N 50°30' E 000°55'010.9
2017-Oct-12 06:59N 50°30' E 000°55'511.1
2017-Oct-12 06:30N 50°29' E 000°47'611.1
2017-Oct-12 05:59N 50°27' E 000°38'611.1
2017-Oct-12 05:28N 50°26' E 000°29'511.1
2017-Oct-12 05:00N 50°24' E 000°21'611.1
2017-Oct-12 04:30N 50°23' E 000°13'611.3
2017-Oct-12 04:00N 50°21' E 000°05'611.6
2017-Oct-12 03:30N 50°19' W 000°04'612.0
2017-Oct-12 03:00N 50°18' W 000°13'9413.3
2017-Oct-11 19:56N 49°52' W 002°34'510.9
2017-Oct-11 19:26N 49°51' W 002°42'510.8
2017-Oct-11 19:00N 49°49' W 002°49'510.5
2017-Oct-11 18:30N 49°47' W 002°56'510.5
2017-Oct-11 18:00N 49°44' W 003°03'510.4
2017-Oct-11 17:30N 49°42' W 003°10'510.5
2017-Oct-11 17:00N 49°39' W 003°17'18310.7
2017-Oct-10 23:58N 47°31' W 006°35'1211.6
2017-Oct-10 22:58N 47°21' W 006°43'1412.0
2017-Oct-10 21:48N 47°09' W 006°53'28511.6
2017-Oct-09 21:14N 42°51' W 009°48'310.9
2017-Oct-09 21:00N 42°49' W 009°48'610.9
2017-Oct-09 20:29N 42°43' W 009°48'510.8
2017-Oct-09 20:00N 42°38' W 009°48'510.5
2017-Oct-09 19:30N 42°33' W 009°48'510.4
2017-Oct-09 19:00N 42°28' W 009°49'611.4
2017-Oct-09 18:30N 42°22' W 009°48'611.5
2017-Oct-09 18:00N 42°16' W 009°48'611.5
2017-Oct-09 17:29N 42°10' W 009°48'611.4
2017-Oct-09 16:58N 42°04' W 009°48'611.6
2017-Oct-09 16:28N 41°59' W 009°48'611.6
2017-Oct-09 15:58N 41°53' W 009°49'1611.2
2017-Oct-09 14:35N 41°37' W 009°49'111.5
2017-Oct-09 14:28N 41°36' W 009°49'511.5
2017-Oct-09 14:00N 41°31' W 009°49'611.5
2017-Oct-09 13:31N 41°25' W 009°49'1711.3
2017-Oct-09 12:03N 41°08' W 009°49'311.4
2017-Oct-09 11:45N 41°05' W 009°49'311.2
2017-Oct-09 11:30N 41°02' W 009°49'611.5
2017-Oct-09 11:00N 40°56' W 009°49'611.3
2017-Oct-09 10:30N 40°51' W 009°50'611.7
2017-Oct-09 10:00N 40°45' W 009°50'611.7
2017-Oct-09 09:30N 40°39' W 009°50'611.7
2017-Oct-09 09:00N 40°33' W 009°49'611.6
2017-Oct-09 08:30N 40°27' W 009°49'611.5
2017-Oct-09 08:00N 40°22' W 009°50'611.4
2017-Oct-09 07:30N 40°16' W 009°50'611.4
2017-Oct-09 07:00N 40°10' W 009°50'611.3
2017-Oct-09 06:30N 40°05' W 009°50'611.2
2017-Oct-09 06:00N 39°59' W 009°50'611.6
2017-Oct-09 05:31N 39°53' W 009°50'611.8
2017-Oct-09 05:00N 39°47' W 009°50'611.7
2017-Oct-09 04:30N 39°42' W 009°50'611.6
2017-Oct-09 04:00N 39°36' W 009°50'611.5
2017-Oct-09 03:30N 39°30' W 009°50'611.5
2017-Oct-09 03:00N 39°24' W 009°50'611.5
2017-Oct-09 02:30N 39°19' W 009°51'612.1
2017-Oct-09 02:01N 39°12' W 009°51'611.5
2017-Oct-09 01:31N 39°07' W 009°50'611.9
2017-Oct-09 01:01N 39°01' W 009°51'611.8
2017-Oct-09 00:31N 38°55' W 009°51'611.4
2017-Oct-09 00:01N 38°49' W 009°51'611.8
2017-Oct-08 23:30N 38°43' W 009°51'611.5
2017-Oct-08 23:01N 38°38' W 009°49'510.9
2017-Oct-08 22:31N 38°32' W 009°47'611.2
2017-Oct-08 22:01N 38°27' W 009°46'611.2
2017-Oct-08 21:30N 38°21' W 009°45'611.3
2017-Oct-08 21:00N 38°16' W 009°43'611.5
2017-Oct-08 20:31N 38°10' W 009°41'611.5
2017-Oct-08 20:01N 38°05' W 009°40'611.3
2017-Oct-08 19:31N 37°59' W 009°38'611.5
2017-Oct-08 19:01N 37°54' W 009°37'611.6
2017-Oct-08 18:30N 37°48' W 009°35'611.5
2017-Oct-08 18:00N 37°42' W 009°33'611.9
2017-Oct-08 17:31N 37°37' W 009°32'611.9
2017-Oct-08 17:00N 37°31' W 009°30'611.7
2017-Oct-08 16:31N 37°25' W 009°28'611.7
2017-Oct-08 16:00N 37°19' W 009°27'611.7
2017-Oct-08 15:28N 37°13' W 009°25'511.7
2017-Oct-08 15:00N 37°08' W 009°24'611.6
2017-Oct-08 14:31N 37°02' W 009°22'1510.8
2017-Oct-08 13:06N 36°49' W 009°14'212.4
2017-Oct-08 12:58N 36°47' W 009°13'510.9
2017-Oct-08 12:30N 36°44' W 009°08'611.2
2017-Oct-08 12:00N 36°42' W 009°01'611.4
2017-Oct-08 11:30N 36°41' W 008°54'611.3
2017-Oct-08 11:00N 36°39' W 008°48'1111.5
2017-Oct-08 10:04N 36°35' W 008°35'211.8
2017-Oct-08 09:57N 36°35' W 008°33'1411.9
2017-Oct-08 08:48N 36°31' W 008°17'512.1
2017-Oct-08 08:21N 36°29' W 008°11'711.6
2017-Oct-08 07:44N 36°27' W 008°02'311.6
2017-Oct-08 07:30N 36°26' W 007°59'611.8
2017-Oct-08 07:00N 36°24' W 007°52'711.8
2017-Oct-08 06:25N 36°21' W 007°44'511.6
2017-Oct-08 06:00N 36°20' W 007°39'711.5
2017-Oct-08 05:23N 36°18' W 007°30'511.4
2017-Oct-08 04:57N 36°17' W 007°24'611.6
2017-Oct-08 04:27N 36°15' W 007°17'1312.0
2017-Oct-08 03:24N 36°11' W 007°02'1211.7
2017-Oct-08 02:20N 36°07' W 006°48'411.5
2017-Oct-08 02:00N 36°06' W 006°43'611.4
2017-Oct-08 01:30N 36°04' W 006°37'28011.1
2017-Oct-07 00:14N 36°36' W 000°51'312.0
2017-Oct-07 00:00N 36°37' W 000°47'612.0
2017-Oct-06 23:30N 36°38' W 000°40'1212.0
2017-Oct-06 22:29N 36°40' W 000°25'1312.1
2017-Oct-06 21:24N 36°42' W 000°09'512.0
2017-Oct-06 21:00N 36°42' W 000°03'811.8
2017-Oct-06 20:19N 36°44' E 000°07'411.7
2017-Oct-06 20:00N 36°45' E 000°11'1111.9
2017-Oct-06 19:03N 36°46' E 000°25'112.1
2017-Oct-06 18:59N 36°47' E 000°26'612.0
2017-Oct-06 18:30N 36°48' E 000°34'612.2
2017-Oct-06 18:00N 36°49' E 000°41'612.6
2017-Oct-06 17:30N 36°50' E 000°49'612.7
2017-Oct-06 17:00N 36°50' E 000°57'812.5
2017-Oct-06 16:24N 36°51' E 001°06'512.5
2017-Oct-06 15:59N 36°51' E 001°13'  
Track history (hours):
 
Tides and Currents Weather Stations Pressure Air Temp Water Temp Dewpoint Dewpoint Depression Visibility Wind Speed Wind Dir Waves Ship Positions

Wadowice II

Last reported at 2017-Oct-16 07:17 UTC. Time now 2017-Oct-17 22:34 UTC.
Position N 53°34' E 014°35'.

Length 188 m; draft 8.9 m.

Type: Cargo ship. MMSI: 311024300.

Date/timePositionNaut miles runAvg speedWind from/ knotsBaromVisibWave heightAir tempDewpointWater temp
2017-Oct-16 07:17N 53°34' E 014°35'0 1.3
2017-Oct-16 07:00N 53°34' E 014°36'3 4.9
2017-Oct-16 06:22N 53°37' E 014°35'23 7.6
2017-Oct-16 03:21N 53°57' E 014°16'410.5
2017-Oct-16 02:55N 54°01' E 014°16'2 1.2
2017-Oct-16 01:03N 54°03' E 014°16'0 0.0
2017-Oct-16 00:54N 54°03' E 014°16'0 0.0
2017-Oct-15 20:57N 54°03' E 014°16'2 0.4
2017-Oct-15 15:47N 54°05' E 014°14'5 9.6
2017-Oct-15 15:19N 54°09' E 014°13'411.2
2017-Oct-15 14:57N 54°13' E 014°11'1111.1
2017-Oct-15 14:00N 54°20' E 013°57'2611.5
2017-Oct-15 11:43N 54°43' E 013°35'1011.0
2017-Oct-15 10:47N 54°46' E 013°19'511.6
2017-Oct-15 10:23N 54°46' E 013°11'411.5
2017-Oct-15 10:00N 54°46' E 013°03'611.7
2017-Oct-15 09:30N 54°47' E 012°53'611.5
2017-Oct-15 09:00N 54°45' E 012°43'612.0
2017-Oct-15 08:30N 54°41' E 012°35'812.1
2017-Oct-15 07:49N 54°37' E 012°23'511.6
2017-Oct-15 07:22N 54°33' E 012°17'412.2
2017-Oct-15 07:00N 54°29' E 012°15'511.0
2017-Oct-15 06:30N 54°25' E 012°08'612.1
2017-Oct-15 06:00N 54°25' E 011°58'611.7
2017-Oct-15 05:31N 54°25' E 011°48'611.7
2017-Oct-15 05:00N 54°27' E 011°38'612.1
2017-Oct-15 04:30N 54°30' E 011°29'612.4
2017-Oct-15 04:00N 54°32' E 011°19'612.2
2017-Oct-15 03:30N 54°35' E 011°10'612.1
2017-Oct-15 03:00N 54°38' E 011°01'611.6
2017-Oct-15 02:30N 54°42' E 010°53'611.6
2017-Oct-15 02:00N 54°47' E 010°52'611.7
2017-Oct-15 01:30N 54°53' E 010°53'611.8
2017-Oct-15 01:00N 54°58' E 010°59'611.5
2017-Oct-15 00:30N 55°04' E 011°02'612.4
2017-Oct-15 00:00N 55°10' E 011°03'611.1
2017-Oct-14 23:30N 55°15' E 011°05'612.2
2017-Oct-14 23:00N 55°21' E 011°02'6510.4
2017-Oct-14 16:44N 56°24' E 011°30'611.5
2017-Oct-14 16:11N 56°30' E 011°36'1011.5
2017-Oct-14 15:19N 56°38' E 011°45'512.0
2017-Oct-14 14:53N 56°43' E 011°50'512.0
2017-Oct-14 14:29N 56°48' E 011°51'612.8
2017-Oct-14 14:00N 56°54' E 011°47'1112.7
2017-Oct-14 13:10N 57°03' E 011°40'312.6
2017-Oct-14 12:58N 57°06' E 011°39'612.5
2017-Oct-14 12:30N 57°11' E 011°35'612.4
2017-Oct-14 12:00N 57°17' E 011°32'612.3
2017-Oct-14 11:30N 57°23' E 011°28'612.0
2017-Oct-14 11:00N 57°28' E 011°23'612.1
2017-Oct-14 10:29N 57°33' E 011°14'612.2
2017-Oct-14 09:59N 57°37' E 011°06'612.8
2017-Oct-14 09:30N 57°41' E 010°57'612.7
2017-Oct-14 09:00N 57°45' E 010°48'713.2
2017-Oct-14 08:30N 57°48' E 010°37'612.2
2017-Oct-14 08:00N 57°47' E 010°26'712.5
2017-Oct-14 07:28N 57°47' E 010°13'29311.4
2017-Oct-13 05:49N 53°52' E 004°60'611.5
2017-Oct-13 05:19N 53°47' E 004°56'411.4
2017-Oct-13 05:00N 53°43' E 004°54'611.2
2017-Oct-13 04:29N 53°38' E 004°51'611.1
2017-Oct-13 03:59N 53°32' E 004°48'611.1
2017-Oct-13 03:29N 53°27' E 004°45'611.0
2017-Oct-13 02:58N 53°22' E 004°41'1310.9
2017-Oct-13 01:44N 53°10' E 004°31'311.0
2017-Oct-13 01:30N 53°08' E 004°29'611.1
2017-Oct-13 01:00N 53°03' E 004°25'611.2
2017-Oct-13 00:30N 52°58' E 004°21'611.4
2017-Oct-13 00:00N 52°53' E 004°16'611.5
2017-Oct-12 23:30N 52°48' E 004°11'611.9
2017-Oct-12 23:00N 52°44' E 004°04'612.0
2017-Oct-12 22:31N 52°39' E 003°57'612.1
2017-Oct-12 22:00N 52°35' E 003°50'612.3
2017-Oct-12 21:30N 52°31' E 003°43'712.5
2017-Oct-12 20:57N 52°26' E 003°35'612.6
2017-Oct-12 20:30N 52°22' E 003°28'812.8
2017-Oct-12 19:51N 52°16' E 003°19'5312.8
2017-Oct-12 15:45N 51°36' E 002°23'312.0
2017-Oct-12 15:30N 51°34' E 002°20'611.7
2017-Oct-12 15:00N 51°30' E 002°14'611.1
2017-Oct-12 14:31N 51°25' E 002°08'610.9
2017-Oct-12 14:00N 51°20' E 002°08'510.4
2017-Oct-12 13:30N 51°15' E 002°06'5 9.9
2017-Oct-12 13:00N 51°12' E 001°60'5 9.8
2017-Oct-12 12:30N 51°10' E 001°53'5 9.6
2017-Oct-12 12:00N 51°07' E 001°47'5 9.5
2017-Oct-12 11:30N 51°03' E 001°42'5 9.2
2017-Oct-12 11:01N 50°60' E 001°37'5 9.5
2017-Oct-12 10:30N 50°57' E 001°31'5 9.7
2017-Oct-12 10:00N 50°52' E 001°27'510.3
2017-Oct-12 09:30N 50°48' E 001°25'2610.4
2017-Oct-12 07:01N 50°30' E 000°55'010.9
2017-Oct-12 06:59N 50°30' E 000°55'511.1
2017-Oct-12 06:30N 50°29' E 000°47'611.1
2017-Oct-12 05:59N 50°27' E 000°38'611.1
2017-Oct-12 05:28N 50°26' E 000°29'511.1
2017-Oct-12 05:00N 50°24' E 000°21'611.1
2017-Oct-12 04:30N 50°23' E 000°13'611.3
2017-Oct-12 04:00N 50°21' E 000°05'611.6
2017-Oct-12 03:30N 50°19' W 000°04'612.0
2017-Oct-12 03:00N 50°18' W 000°13'9413.3
2017-Oct-11 19:56N 49°52' W 002°34'510.9
2017-Oct-11 19:26N 49°51' W 002°42'510.8
2017-Oct-11 19:00N 49°49' W 002°49'510.5
2017-Oct-11 18:30N 49°47' W 002°56'510.5
2017-Oct-11 18:00N 49°44' W 003°03'510.4
2017-Oct-11 17:30N 49°42' W 003°10'510.5
2017-Oct-11 17:00N 49°39' W 003°17'18310.7
2017-Oct-10 23:58N 47°31' W 006°35'1211.6
2017-Oct-10 22:58N 47°21' W 006°43'1412.0
2017-Oct-10 21:48N 47°09' W 006°53'28511.6
2017-Oct-09 21:14N 42°51' W 009°48'310.9
2017-Oct-09 21:00N 42°49' W 009°48'610.9
2017-Oct-09 20:29N 42°43' W 009°48'510.8
2017-Oct-09 20:00N 42°38' W 009°48'510.5
2017-Oct-09 19:30N 42°33' W 009°48'510.4
2017-Oct-09 19:00N 42°28' W 009°49'611.4
2017-Oct-09 18:30N 42°22' W 009°48'611.5
2017-Oct-09 18:00N 42°16' W 009°48'611.5
2017-Oct-09 17:29N 42°10' W 009°48'611.4
2017-Oct-09 16:58N 42°04' W 009°48'611.6
2017-Oct-09 16:28N 41°59' W 009°48'611.6
2017-Oct-09 15:58N 41°53' W 009°49'1611.2
2017-Oct-09 14:35N 41°37' W 009°49'111.5
2017-Oct-09 14:28N 41°36' W 009°49'511.5
2017-Oct-09 14:00N 41°31' W 009°49'611.5
2017-Oct-09 13:31N 41°25' W 009°49'1711.3
2017-Oct-09 12:03N 41°08' W 009°49'311.4
2017-Oct-09 11:45N 41°05' W 009°49'311.2
2017-Oct-09 11:30N 41°02' W 009°49'611.5
2017-Oct-09 11:00N 40°56' W 009°49'611.3
2017-Oct-09 10:30N 40°51' W 009°50'611.7
2017-Oct-09 10:00N 40°45' W 009°50'611.7
2017-Oct-09 09:30N 40°39' W 009°50'611.7
2017-Oct-09 09:00N 40°33' W 009°49'611.6
2017-Oct-09 08:30N 40°27' W 009°49'611.5
2017-Oct-09 08:00N 40°22' W 009°50'611.4
2017-Oct-09 07:30N 40°16' W 009°50'611.4
2017-Oct-09 07:00N 40°10' W 009°50'611.3
2017-Oct-09 06:30N 40°05' W 009°50'611.2
2017-Oct-09 06:00N 39°59' W 009°50'611.6
2017-Oct-09 05:31N 39°53' W 009°50'611.8
2017-Oct-09 05:00N 39°47' W 009°50'611.7
2017-Oct-09 04:30N 39°42' W 009°50'611.6
2017-Oct-09 04:00N 39°36' W 009°50'611.5
2017-Oct-09 03:30N 39°30' W 009°50'611.5
2017-Oct-09 03:00N 39°24' W 009°50'611.5
2017-Oct-09 02:30N 39°19' W 009°51'612.1
2017-Oct-09 02:01N 39°12' W 009°51'611.5
2017-Oct-09 01:31N 39°07' W 009°50'611.9
2017-Oct-09 01:01N 39°01' W 009°51'611.8
2017-Oct-09 00:31N 38°55' W 009°51'611.4
2017-Oct-09 00:01N 38°49' W 009°51'611.8
2017-Oct-08 23:30N 38°43' W 009°51'611.5
2017-Oct-08 23:01N 38°38' W 009°49'510.9
2017-Oct-08 22:31N 38°32' W 009°47'611.2
2017-Oct-08 22:01N 38°27' W 009°46'611.2
2017-Oct-08 21:30N 38°21' W 009°45'611.3
2017-Oct-08 21:00N 38°16' W 009°43'611.5
2017-Oct-08 20:31N 38°10' W 009°41'611.5
2017-Oct-08 20:01N 38°05' W 009°40'611.3
2017-Oct-08 19:31N 37°59' W 009°38'611.5
2017-Oct-08 19:01N 37°54' W 009°37'611.6
2017-Oct-08 18:30N 37°48' W 009°35'611.5
2017-Oct-08 18:00N 37°42' W 009°33'611.9
2017-Oct-08 17:31N 37°37' W 009°32'611.9
2017-Oct-08 17:00N 37°31' W 009°30'611.7
2017-Oct-08 16:31N 37°25' W 009°28'611.7
2017-Oct-08 16:00N 37°19' W 009°27'611.7
2017-Oct-08 15:28N 37°13' W 009°25'511.7
2017-Oct-08 15:00N 37°08' W 009°24'611.6
2017-Oct-08 14:31N 37°02' W 009°22'1510.8
2017-Oct-08 13:06N 36°49' W 009°14'212.4
2017-Oct-08 12:58N 36°47' W 009°13'510.9
2017-Oct-08 12:30N 36°44' W 009°08'611.2
2017-Oct-08 12:00N 36°42' W 009°01'611.4
2017-Oct-08 11:30N 36°41' W 008°54'611.3
2017-Oct-08 11:00N 36°39' W 008°48'1111.5
2017-Oct-08 10:04N 36°35' W 008°35'211.8
2017-Oct-08 09:57N 36°35' W 008°33'1411.9
2017-Oct-08 08:48N 36°31' W 008°17'512.1
2017-Oct-08 08:21N 36°29' W 008°11'711.6
2017-Oct-08 07:44N 36°27' W 008°02'311.6
2017-Oct-08 07:30N 36°26' W 007°59'611.8
2017-Oct-08 07:00N 36°24' W 007°52'711.8
2017-Oct-08 06:25N 36°21' W 007°44'511.6
2017-Oct-08 06:00N 36°20' W 007°39'711.5
2017-Oct-08 05:23N 36°18' W 007°30'511.4
2017-Oct-08 04:57N 36°17' W 007°24'611.6
2017-Oct-08 04:27N 36°15' W 007°17'1312.0
2017-Oct-08 03:24N 36°11' W 007°02'1211.7
2017-Oct-08 02:20N 36°07' W 006°48'411.5
2017-Oct-08 02:00N 36°06' W 006°43'611.4
2017-Oct-08 01:30N 36°04' W 006°37'28011.1
2017-Oct-07 00:14N 36°36' W 000°51'312.0
2017-Oct-07 00:00N 36°37' W 000°47'612.0
2017-Oct-06 23:30N 36°38' W 000°40'1212.0
2017-Oct-06 22:29N 36°40' W 000°25'1312.1
2017-Oct-06 21:24N 36°42' W 000°09'512.0
2017-Oct-06 21:00N 36°42' W 000°03'811.8
2017-Oct-06 20:19N 36°44' E 000°07'411.7
2017-Oct-06 20:00N 36°45' E 000°11'1111.9
2017-Oct-06 19:03N 36°46' E 000°25'112.1
2017-Oct-06 18:59N 36°47' E 000°26'612.0
2017-Oct-06 18:30N 36°48' E 000°34'612.2
2017-Oct-06 18:00N 36°49' E 000°41'612.6
2017-Oct-06 17:30N 36°50' E 000°49'612.7
2017-Oct-06 17:00N 36°50' E 000°57'812.5
2017-Oct-06 16:24N 36°51' E 001°06'512.5
2017-Oct-06 15:59N 36°51' E 001°13'  

Dump ship's entire track history